sensor_id;sensor_type;location;lat;lon;timestamp;P1;durP1;ratioP1;P2;durP2;ratioP2
56319;SDS011;42226;42.382;23.748;2024-02-21T00:01:54;11.15;;;10.10;;
56319;SDS011;42226;42.382;23.748;2024-02-21T00:04:21;10.82;;;9.82;;
56319;SDS011;42226;42.382;23.748;2024-02-21T00:06:48;10.48;;;9.43;;
56319;SDS011;42226;42.382;23.748;2024-02-21T00:09:16;10.55;;;9.55;;
56319;SDS011;42226;42.382;23.748;2024-02-21T00:11:44;9.93;;;9.02;;
56319;SDS011;42226;42.382;23.748;2024-02-21T00:14:13;10.65;;;9.65;;
56319;SDS011;42226;42.382;23.748;2024-02-21T00:16:41;10.93;;;9.93;;
56319;SDS011;42226;42.382;23.748;2024-02-21T00:19:09;10.90;;;9.80;;
56319;SDS011;42226;42.382;23.748;2024-02-21T00:21:36;11.63;;;10.52;;
56319;SDS011;42226;42.382;23.748;2024-02-21T00:24:04;10.68;;;9.68;;
56319;SDS011;42226;42.382;23.748;2024-02-21T00:26:31;11.02;;;10.02;;
56319;SDS011;42226;42.382;23.748;2024-02-21T00:28:58;11.48;;;10.27;;
56319;SDS011;42226;42.382;23.748;2024-02-21T00:31:25;12.68;;;11.48;;
56319;SDS011;42226;42.382;23.748;2024-02-21T00:33:52;11.93;;;10.73;;
56319;SDS011;42226;42.382;23.748;2024-02-21T00:36:20;11.13;;;10.07;;
56319;SDS011;42226;42.382;23.748;2024-02-21T00:38:47;11.88;;;10.77;;
56319;SDS011;42226;42.382;23.748;2024-02-21T00:41:15;11.10;;;10.10;;
56319;SDS011;42226;42.382;23.748;2024-02-21T00:43:43;11.60;;;10.40;;
56319;SDS011;42226;42.382;23.748;2024-02-21T00:46:10;11.95;;;10.80;;
56319;SDS011;42226;42.382;23.748;2024-02-21T00:48:37;12.50;;;11.20;;
56319;SDS011;42226;42.382;23.748;2024-02-21T00:51:05;11.88;;;10.75;;
56319;SDS011;42226;42.382;23.748;2024-02-21T00:53:31;11.45;;;9.98;;
56319;SDS011;42226;42.382;23.748;2024-02-21T00:55:59;11.18;;;10.10;;
56319;SDS011;42226;42.382;23.748;2024-02-21T00:58:26;11.90;;;10.70;;
56319;SDS011;42226;42.382;23.748;2024-02-21T01:00:54;10.45;;;9.50;;
56319;SDS011;42226;42.382;23.748;2024-02-21T01:03:22;10.30;;;9.30;;
56319;SDS011;42226;42.382;23.748;2024-02-21T01:05:49;9.35;;;8.55;;
56319;SDS011;42226;42.382;23.748;2024-02-21T01:08:16;10.00;;;9.10;;
56319;SDS011;42226;42.382;23.748;2024-02-21T01:10:43;9.52;;;8.73;;
56319;SDS011;42226;42.382;23.748;2024-02-21T01:13:10;9.35;;;8.55;;
56319;SDS011;42226;42.382;23.748;2024-02-21T01:15:37;9.10;;;8.30;;
56319;SDS011;42226;42.382;23.748;2024-02-21T01:18:05;8.70;;;8.00;;
56319;SDS011;42226;42.382;23.748;2024-02-21T01:20:31;8.25;;;7.55;;
56319;SDS011;42226;42.382;23.748;2024-02-21T01:22:59;7.15;;;6.65;;
56319;SDS011;42226;42.382;23.748;2024-02-21T01:25:26;7.75;;;7.15;;
56319;SDS011;42226;42.382;23.748;2024-02-21T01:27:54;7.55;;;6.93;;
56319;SDS011;42226;42.382;23.748;2024-02-21T01:30:22;6.80;;;6.30;;
56319;SDS011;42226;42.382;23.748;2024-02-21T01:32:49;7.97;;;7.28;;
56319;SDS011;42226;42.382;23.748;2024-02-21T01:35:16;6.50;;;6.00;;
56319;SDS011;42226;42.382;23.748;2024-02-21T01:37:43;7.70;;;7.10;;
56319;SDS011;42226;42.382;23.748;2024-02-21T01:40:10;7.38;;;6.78;;
56319;SDS011;42226;42.382;23.748;2024-02-21T01:42:38;7.78;;;7.18;;
56319;SDS011;42226;42.382;23.748;2024-02-21T01:45:08;7.32;;;6.72;;
56319;SDS011;42226;42.382;23.748;2024-02-21T01:47:36;8.18;;;7.55;;
56319;SDS011;42226;42.382;23.748;2024-02-21T01:50:04;7.95;;;7.25;;
56319;SDS011;42226;42.382;23.748;2024-02-21T01:52:32;7.05;;;6.45;;
56319;SDS011;42226;42.382;23.748;2024-02-21T01:55:01;7.63;;;7.03;;
56319;SDS011;42226;42.382;23.748;2024-02-21T01:57:29;8.60;;;7.90;;
56319;SDS011;42226;42.382;23.748;2024-02-21T01:59:57;8.13;;;7.50;;
56319;SDS011;42226;42.382;23.748;2024-02-21T02:05:13;7.60;;;6.93;;
56319;SDS011;42226;42.382;23.748;2024-02-21T02:07:42;8.07;;;7.45;;
56319;SDS011;42226;42.382;23.748;2024-02-21T02:10:09;7.80;;;7.10;;
56319;SDS011;42226;42.382;23.748;2024-02-21T02:12:37;7.85;;;7.25;;
56319;SDS011;42226;42.382;23.748;2024-02-21T02:15:05;7.55;;;6.95;;
56319;SDS011;42226;42.382;23.748;2024-02-21T02:17:33;7.03;;;6.53;;
56319;SDS011;42226;42.382;23.748;2024-02-21T02:20:00;7.47;;;6.88;;
56319;SDS011;42226;42.382;23.748;2024-02-21T02:25:39;7.70;;;7.00;;
56319;SDS011;42226;42.382;23.748;2024-02-21T02:28:07;7.40;;;6.80;;
56319;SDS011;42226;42.382;23.748;2024-02-21T02:30:38;7.75;;;7.05;;
56319;SDS011;42226;42.382;23.748;2024-02-21T02:33:05;6.00;;;5.60;;
56319;SDS011;42226;42.382;23.748;2024-02-21T02:35:33;7.30;;;6.70;;
56319;SDS011;42226;42.382;23.748;2024-02-21T02:38:03;8.38;;;7.72;;
56319;SDS011;42226;42.382;23.748;2024-02-21T02:40:34;7.47;;;6.88;;
56319;SDS011;42226;42.382;23.748;2024-02-21T02:43:01;7.60;;;7.00;;
56319;SDS011;42226;42.382;23.748;2024-02-21T02:45:29;7.70;;;7.10;;
56319;SDS011;42226;42.382;23.748;2024-02-21T02:47:56;7.78;;;7.18;;
56319;SDS011;42226;42.382;23.748;2024-02-21T02:50:24;7.97;;;7.35;;
56319;SDS011;42226;42.382;23.748;2024-02-21T02:52:55;7.63;;;7.03;;
56319;SDS011;42226;42.382;23.748;2024-02-21T02:55:23;8.35;;;7.65;;
56319;SDS011;42226;42.382;23.748;2024-02-21T03:00:49;7.68;;;7.07;;
56319;SDS011;42226;42.382;23.748;2024-02-21T03:03:16;8.32;;;7.68;;
56319;SDS011;42226;42.382;23.748;2024-02-21T03:05:44;7.43;;;6.82;;
56319;SDS011;42226;42.382;23.748;2024-02-21T03:08:12;7.55;;;6.90;;
56319;SDS011;42226;42.382;23.748;2024-02-21T03:10:40;8.10;;;7.40;;
56319;SDS011;42226;42.382;23.748;2024-02-21T03:13:06;7.57;;;6.97;;
56319;SDS011;42226;42.382;23.748;2024-02-21T03:15:35;7.85;;;7.25;;
56319;SDS011;42226;42.382;23.748;2024-02-21T03:18:02;7.30;;;6.80;;
56319;SDS011;42226;42.382;23.748;2024-02-21T03:20:30;7.68;;;7.07;;
56319;SDS011;42226;42.382;23.748;2024-02-21T03:22:57;7.68;;;7.07;;
56319;SDS011;42226;42.382;23.748;2024-02-21T03:25:25;7.03;;;6.53;;
56319;SDS011;42226;42.382;23.748;2024-02-21T03:27:52;7.70;;;7.10;;
56319;SDS011;42226;42.382;23.748;2024-02-21T03:30:19;7.80;;;7.20;;
56319;SDS011;42226;42.382;23.748;2024-02-21T03:32:47;7.63;;;7.03;;
56319;SDS011;42226;42.382;23.748;2024-02-21T03:35:14;7.70;;;7.00;;
56319;SDS011;42226;42.382;23.748;2024-02-21T03:37:44;7.43;;;6.82;;
56319;SDS011;42226;42.382;23.748;2024-02-21T03:40:11;7.68;;;7.07;;
56319;SDS011;42226;42.382;23.748;2024-02-21T03:42:40;8.07;;;7.47;;
56319;SDS011;42226;42.382;23.748;2024-02-21T03:45:07;8.48;;;7.78;;
56319;SDS011;42226;42.382;23.748;2024-02-21T03:47:36;8.60;;;7.85;;
56319;SDS011;42226;42.382;23.748;2024-02-21T03:50:03;9.00;;;8.20;;
56319;SDS011;42226;42.382;23.748;2024-02-21T03:52:32;8.80;;;8.10;;
56319;SDS011;42226;42.382;23.748;2024-02-21T03:54:59;8.48;;;7.78;;
56319;SDS011;42226;42.382;23.748;2024-02-21T03:57:26;8.30;;;7.70;;
56319;SDS011;42226;42.382;23.748;2024-02-21T03:59:53;7.57;;;7.07;;
56319;SDS011;42226;42.382;23.748;2024-02-21T04:02:21;8.80;;;8.10;;
56319;SDS011;42226;42.382;23.748;2024-02-21T04:04:48;7.95;;;7.35;;
56319;SDS011;42226;42.382;23.748;2024-02-21T04:07:15;7.60;;;7.00;;
56319;SDS011;42226;42.382;23.748;2024-02-21T04:09:43;8.60;;;7.80;;
56319;SDS011;42226;42.382;23.748;2024-02-21T04:12:09;9.02;;;8.23;;
56319;SDS011;42226;42.382;23.748;2024-02-21T04:14:37;9.20;;;8.35;;
56319;SDS011;42226;42.382;23.748;2024-02-21T04:17:04;9.32;;;7.60;;
56319;SDS011;42226;42.382;23.748;2024-02-21T04:19:33;9.05;;;8.25;;
56319;SDS011;42226;42.382;23.748;2024-02-21T04:22:01;10.32;;;9.43;;
56319;SDS011;42226;42.382;23.748;2024-02-21T04:24:29;10.57;;;9.60;;
56319;SDS011;42226;42.382;23.748;2024-02-21T04:26:56;10.60;;;9.55;;
56319;SDS011;42226;42.382;23.748;2024-02-21T04:29:24;9.73;;;8.75;;
56319;SDS011;42226;42.382;23.748;2024-02-21T04:31:51;10.35;;;9.35;;
56319;SDS011;42226;42.382;23.748;2024-02-21T04:34:18;10.38;;;9.38;;
56319;SDS011;42226;42.382;23.748;2024-02-21T04:36:46;10.48;;;9.57;;
56319;SDS011;42226;42.382;23.748;2024-02-21T04:39:13;9.80;;;8.90;;
56319;SDS011;42226;42.382;23.748;2024-02-21T04:41:39;9.75;;;8.85;;
56319;SDS011;42226;42.382;23.748;2024-02-21T04:44:06;10.43;;;9.43;;
56319;SDS011;42226;42.382;23.748;2024-02-21T04:46:34;10.68;;;9.68;;
56319;SDS011;42226;42.382;23.748;2024-02-21T04:49:02;10.50;;;9.60;;
56319;SDS011;42226;42.382;23.748;2024-02-21T04:51:29;11.10;;;10.00;;
56319;SDS011;42226;42.382;23.748;2024-02-21T04:53:58;11.48;;;10.48;;
56319;SDS011;42226;42.382;23.748;2024-02-21T04:56:25;10.65;;;9.73;;
56319;SDS011;42226;42.382;23.748;2024-02-21T04:58:53;10.93;;;9.88;;
56319;SDS011;42226;42.382;23.748;2024-02-21T05:01:20;11.07;;;9.93;;
56319;SDS011;42226;42.382;23.748;2024-02-21T05:03:48;10.82;;;9.75;;
56319;SDS011;42226;42.382;23.748;2024-02-21T05:06:14;11.27;;;10.18;;
56319;SDS011;42226;42.382;23.748;2024-02-21T05:08:43;11.00;;;9.93;;
56319;SDS011;42226;42.382;23.748;2024-02-21T05:11:09;11.95;;;10.75;;
56319;SDS011;42226;42.382;23.748;2024-02-21T05:13:37;13.10;;;11.80;;
56319;SDS011;42226;42.382;23.748;2024-02-21T05:16:05;13.57;;;11.95;;
56319;SDS011;42226;42.382;23.748;2024-02-21T05:18:33;12.73;;;11.38;;
56319;SDS011;42226;42.382;23.748;2024-02-21T05:21:00;12.48;;;10.98;;
56319;SDS011;42226;42.382;23.748;2024-02-21T05:23:28;14.40;;;12.90;;
56319;SDS011;42226;42.382;23.748;2024-02-21T05:25:55;13.63;;;12.15;;
56319;SDS011;42226;42.382;23.748;2024-02-21T05:28:22;12.38;;;11.15;;
56319;SDS011;42226;42.382;23.748;2024-02-21T05:30:50;11.63;;;10.38;;
56319;SDS011;42226;42.382;23.748;2024-02-21T05:33:16;10.88;;;9.82;;
56319;SDS011;42226;42.382;23.748;2024-02-21T05:35:50;11.70;;;10.50;;
56319;SDS011;42226;42.382;23.748;2024-02-21T05:38:17;11.80;;;10.60;;
56319;SDS011;42226;42.382;23.748;2024-02-21T05:40:45;10.65;;;9.75;;
56319;SDS011;42226;42.382;23.748;2024-02-21T05:43:12;11.45;;;10.27;;
56319;SDS011;42226;42.382;23.748;2024-02-21T05:45:40;11.07;;;10.07;;
56319;SDS011;42226;42.382;23.748;2024-02-21T05:48:08;11.65;;;10.45;;
56319;SDS011;42226;42.382;23.748;2024-02-21T05:50:35;11.68;;;9.77;;
56319;SDS011;42226;42.382;23.748;2024-02-21T05:53:03;12.57;;;11.32;;
56319;SDS011;42226;42.382;23.748;2024-02-21T05:55:30;13.32;;;11.75;;
56319;SDS011;42226;42.382;23.748;2024-02-21T05:57:57;12.77;;;11.48;;
56319;SDS011;42226;42.382;23.748;2024-02-21T06:00:23;13.32;;;11.73;;
56319;SDS011;42226;42.382;23.748;2024-02-21T06:02:51;12.75;;;11.43;;
56319;SDS011;42226;42.382;23.748;2024-02-21T06:05:17;12.57;;;11.27;;
56319;SDS011;42226;42.382;23.748;2024-02-21T06:07:45;13.75;;;11.38;;
56319;SDS011;42226;42.382;23.748;2024-02-21T06:10:12;11.93;;;10.73;;
56319;SDS011;42226;42.382;23.748;2024-02-21T06:12:40;12.30;;;11.00;;
56319;SDS011;42226;42.382;23.748;2024-02-21T06:15:07;12.63;;;11.32;;
56319;SDS011;42226;42.382;23.748;2024-02-21T06:17:35;13.73;;;12.13;;
56319;SDS011;42226;42.382;23.748;2024-02-21T06:20:02;13.82;;;11.77;;
56319;SDS011;42226;42.382;23.748;2024-02-21T06:22:30;13.50;;;12.10;;
56319;SDS011;42226;42.382;23.748;2024-02-21T06:24:59;12.55;;;11.20;;
56319;SDS011;42226;42.382;23.748;2024-02-21T06:27:35;13.13;;;11.82;;
56319;SDS011;42226;42.382;23.748;2024-02-21T06:30:03;12.80;;;11.45;;
56319;SDS011;42226;42.382;23.748;2024-02-21T06:32:30;13.77;;;11.90;;
56319;SDS011;42226;42.382;23.748;2024-02-21T06:34:57;12.93;;;11.63;;
56319;SDS011;42226;42.382;23.748;2024-02-21T06:37:26;13.57;;;12.18;;
56319;SDS011;42226;42.382;23.748;2024-02-21T06:39:54;12.27;;;11.00;;
56319;SDS011;42226;42.382;23.748;2024-02-21T06:42:21;13.60;;;12.10;;
56319;SDS011;42226;42.382;23.748;2024-02-21T06:44:50;13.45;;;11.77;;
56319;SDS011;42226;42.382;23.748;2024-02-21T06:47:17;13.23;;;11.93;;
56319;SDS011;42226;42.382;23.748;2024-02-21T06:49:48;13.05;;;11.65;;
56319;SDS011;42226;42.382;23.748;2024-02-21T06:52:20;13.73;;;12.20;;
56319;SDS011;42226;42.382;23.748;2024-02-21T06:54:47;13.18;;;11.60;;
56319;SDS011;42226;42.382;23.748;2024-02-21T06:57:15;12.70;;;11.30;;
56319;SDS011;42226;42.382;23.748;2024-02-21T06:59:42;12.52;;;11.30;;
56319;SDS011;42226;42.382;23.748;2024-02-21T07:02:09;12.40;;;11.10;;
56319;SDS011;42226;42.382;23.748;2024-02-21T07:04:36;13.05;;;11.75;;
56319;SDS011;42226;42.382;23.748;2024-02-21T07:07:03;13.13;;;11.85;;
56319;SDS011;42226;42.382;23.748;2024-02-21T07:09:30;13.48;;;12.02;;
56319;SDS011;42226;42.382;23.748;2024-02-21T07:11:58;12.80;;;11.50;;
56319;SDS011;42226;42.382;23.748;2024-02-21T07:14:25;12.80;;;11.50;;
56319;SDS011;42226;42.382;23.748;2024-02-21T07:16:53;12.60;;;11.30;;
56319;SDS011;42226;42.382;23.748;2024-02-21T07:19:20;12.30;;;11.00;;
56319;SDS011;42226;42.382;23.748;2024-02-21T07:21:47;13.05;;;11.75;;
56319;SDS011;42226;42.382;23.748;2024-02-21T07:24:15;11.73;;;10.60;;
56319;SDS011;42226;42.382;23.748;2024-02-21T07:26:45;12.48;;;11.27;;
56319;SDS011;42226;42.382;23.748;2024-02-21T07:29:12;10.95;;;9.80;;
56319;SDS011;42226;42.382;23.748;2024-02-21T07:31:43;11.27;;;10.18;;
56319;SDS011;42226;42.382;23.748;2024-02-21T07:34:11;12.55;;;11.35;;
56319;SDS011;42226;42.382;23.748;2024-02-21T07:36:40;12.57;;;10.23;;
56319;SDS011;42226;42.382;23.748;2024-02-21T07:39:09;10.85;;;9.82;;
56319;SDS011;42226;42.382;23.748;2024-02-21T07:41:36;10.55;;;9.38;;
56319;SDS011;42226;42.382;23.748;2024-02-21T07:44:04;11.98;;;10.77;;
56319;SDS011;42226;42.382;23.748;2024-02-21T07:46:46;11.05;;;9.95;;
56319;SDS011;42226;42.382;23.748;2024-02-21T07:49:13;11.38;;;10.27;;
56319;SDS011;42226;42.382;23.748;2024-02-21T07:51:39;10.90;;;9.90;;
56319;SDS011;42226;42.382;23.748;2024-02-21T07:54:08;9.52;;;8.55;;
56319;SDS011;42226;42.382;23.748;2024-02-21T07:56:35;9.95;;;9.02;;
56319;SDS011;42226;42.382;23.748;2024-02-21T07:59:03;10.45;;;9.38;;
56319;SDS011;42226;42.382;23.748;2024-02-21T08:01:30;10.60;;;9.25;;
56319;SDS011;42226;42.382;23.748;2024-02-21T08:03:58;12.27;;;11.07;;
56319;SDS011;42226;42.382;23.748;2024-02-21T08:06:26;11.05;;;10.05;;
56319;SDS011;42226;42.382;23.748;2024-02-21T08:08:53;11.50;;;10.43;;
56319;SDS011;42226;42.382;23.748;2024-02-21T08:11:21;11.07;;;10.05;;
56319;SDS011;42226;42.382;23.748;2024-02-21T08:13:47;11.18;;;10.18;;
56319;SDS011;42226;42.382;23.748;2024-02-21T08:16:14;11.77;;;10.60;;
56319;SDS011;42226;42.382;23.748;2024-02-21T08:18:43;10.45;;;9.45;;
56319;SDS011;42226;42.382;23.748;2024-02-21T08:24:21;10.35;;;9.45;;
56319;SDS011;42226;42.382;23.748;2024-02-21T08:26:48;11.02;;;9.93;;
56319;SDS011;42226;42.382;23.748;2024-02-21T08:29:16;10.60;;;9.60;;
56319;SDS011;42226;42.382;23.748;2024-02-21T08:31:42;10.82;;;9.80;;
56319;SDS011;42226;42.382;23.748;2024-02-21T08:34:09;10.68;;;9.68;;
56319;SDS011;42226;42.382;23.748;2024-02-21T08:36:38;11.07;;;10.07;;
56319;SDS011;42226;42.382;23.748;2024-02-21T08:39:05;11.02;;;10.02;;
56319;SDS011;42226;42.382;23.748;2024-02-21T08:41:35;10.35;;;9.45;;
56319;SDS011;42226;42.382;23.748;2024-02-21T08:44:02;10.40;;;9.40;;
56319;SDS011;42226;42.382;23.748;2024-02-21T08:46:30;9.80;;;9.00;;
56319;SDS011;42226;42.382;23.748;2024-02-21T08:51:44;9.38;;;8.68;;
56319;SDS011;42226;42.382;23.748;2024-02-21T08:57:04;9.25;;;8.23;;
56319;SDS011;42226;42.382;23.748;2024-02-21T08:59:30;9.43;;;8.60;;
56319;SDS011;42226;42.382;23.748;2024-02-21T09:01:57;9.05;;;8.35;;
56319;SDS011;42226;42.382;23.748;2024-02-21T09:04:26;9.10;;;8.30;;
56319;SDS011;42226;42.382;23.748;2024-02-21T09:06:53;9.25;;;8.45;;
56319;SDS011;42226;42.382;23.748;2024-02-21T09:09:20;8.05;;;7.30;;
56319;SDS011;42226;42.382;23.748;2024-02-21T09:11:47;7.50;;;6.90;;
56319;SDS011;42226;42.382;23.748;2024-02-21T09:14:15;8.10;;;7.40;;
56319;SDS011;42226;42.382;23.748;2024-02-21T09:16:43;8.50;;;7.80;;
56319;SDS011;42226;42.382;23.748;2024-02-21T09:19:10;7.93;;;7.32;;
56319;SDS011;42226;42.382;23.748;2024-02-21T09:24:32;7.50;;;6.95;;
56319;SDS011;42226;42.382;23.748;2024-02-21T09:26:58;7.65;;;7.05;;
56319;SDS011;42226;42.382;23.748;2024-02-21T09:29:26;7.82;;;7.22;;
56319;SDS011;42226;42.382;23.748;2024-02-21T09:34:38;8.40;;;7.70;;
56319;SDS011;42226;42.382;23.748;2024-02-21T09:37:05;7.90;;;7.30;;
56319;SDS011;42226;42.382;23.748;2024-02-21T09:39:32;8.35;;;7.68;;
56319;SDS011;42226;42.382;23.748;2024-02-21T09:41:59;8.10;;;7.50;;
56319;SDS011;42226;42.382;23.748;2024-02-21T09:44:36;8.00;;;7.38;;
56319;SDS011;42226;42.382;23.748;2024-02-21T09:50:01;8.00;;;7.40;;
56319;SDS011;42226;42.382;23.748;2024-02-21T09:52:32;8.45;;;7.75;;
56319;SDS011;42226;42.382;23.748;2024-02-21T09:54:59;8.25;;;7.65;;
56319;SDS011;42226;42.382;23.748;2024-02-21T09:57:32;7.95;;;7.35;;
56319;SDS011;42226;42.382;23.748;2024-02-21T09:59:59;8.35;;;7.75;;
56319;SDS011;42226;42.382;23.748;2024-02-21T10:02:43;8.30;;;7.63;;
56319;SDS011;42226;42.382;23.748;2024-02-21T10:08:26;8.40;;;7.70;;
56319;SDS011;42226;42.382;23.748;2024-02-21T10:10:53;7.03;;;6.53;;
56319;SDS011;42226;42.382;23.748;2024-02-21T10:16:59;7.28;;;6.78;;
56319;SDS011;42226;42.382;23.748;2024-02-21T10:19:26;6.82;;;6.32;;
56319;SDS011;42226;42.382;23.748;2024-02-21T10:24:52;7.45;;;6.95;;
56319;SDS011;42226;42.382;23.748;2024-02-21T10:27:19;7.55;;;6.95;;
56319;SDS011;42226;42.382;23.748;2024-02-21T10:29:51;7.10;;;6.60;;
56319;SDS011;42226;42.382;23.748;2024-02-21T10:36:08;7.50;;;7.00;;
56319;SDS011;42226;42.382;23.748;2024-02-21T10:38:36;6.05;;;5.65;;
56319;SDS011;42226;42.382;23.748;2024-02-21T10:41:04;6.72;;;6.22;;
56319;SDS011;42226;42.382;23.748;2024-02-21T10:43:38;7.30;;;6.80;;
56319;SDS011;42226;42.382;23.748;2024-02-21T10:46:07;6.43;;;6.03;;
56319;SDS011;42226;42.382;23.748;2024-02-21T10:48:44;7.13;;;6.63;;
56319;SDS011;42226;42.382;23.748;2024-02-21T10:51:19;6.97;;;6.47;;
56319;SDS011;42226;42.382;23.748;2024-02-21T10:56:29;6.68;;;6.18;;
56319;SDS011;42226;42.382;23.748;2024-02-21T10:59:03;7.05;;;6.50;;
56319;SDS011;42226;42.382;23.748;2024-02-21T11:01:32;8.05;;;7.55;;
56319;SDS011;42226;42.382;23.748;2024-02-21T11:04:06;7.53;;;7.00;;
56319;SDS011;42226;42.382;23.748;2024-02-21T11:06:37;7.75;;;7.15;;
56319;SDS011;42226;42.382;23.748;2024-02-21T11:09:06;8.25;;;7.65;;
56319;SDS011;42226;42.382;23.748;2024-02-21T11:11:39;8.55;;;7.85;;
56319;SDS011;42226;42.382;23.748;2024-02-21T11:14:08;8.77;;;8.07;;
56319;SDS011;42226;42.382;23.748;2024-02-21T11:55:50;8.50;;;7.78;;
56319;SDS011;42226;42.382;23.748;2024-02-21T11:58:16;9.20;;;8.10;;
56319;SDS011;42226;42.382;23.748;2024-02-21T12:00:44;9.15;;;8.40;;
56319;SDS011;42226;42.382;23.748;2024-02-21T12:03:11;9.15;;;8.35;;
56319;SDS011;42226;42.382;23.748;2024-02-21T12:08:48;9.43;;;8.43;;
56319;SDS011;42226;42.382;23.748;2024-02-21T12:11:17;10.18;;;9.27;;
56319;SDS011;42226;42.382;23.748;2024-02-21T12:13:47;9.70;;;8.80;;
56319;SDS011;42226;42.382;23.748;2024-02-21T12:16:31;9.98;;;9.18;;
56319;SDS011;42226;42.382;23.748;2024-02-21T12:19:00;11.40;;;10.50;;
56319;SDS011;42226;42.382;23.748;2024-02-21T12:21:29;10.13;;;9.23;;
56319;SDS011;42226;42.382;23.748;2024-02-21T12:24:00;10.50;;;9.60;;
56319;SDS011;42226;42.382;23.748;2024-02-21T12:26:52;10.30;;;9.40;;
56319;SDS011;42226;42.382;23.748;2024-02-21T12:37:53;8.27;;;7.68;;
56319;SDS011;42226;42.382;23.748;2024-02-21T12:40:20;8.88;;;8.18;;
56319;SDS011;42226;42.382;23.748;2024-02-21T12:42:47;7.97;;;7.38;;
56319;SDS011;42226;42.382;23.748;2024-02-21T12:45:15;8.40;;;7.80;;
56319;SDS011;42226;42.382;23.748;2024-02-21T12:47:42;7.45;;;6.75;;
56319;SDS011;42226;42.382;23.748;2024-02-21T12:50:09;7.20;;;6.60;;
56319;SDS011;42226;42.382;23.748;2024-02-21T12:52:37;7.20;;;6.55;;
56319;SDS011;42226;42.382;23.748;2024-02-21T12:55:05;6.28;;;5.88;;
56319;SDS011;42226;42.382;23.748;2024-02-21T12:57:32;6.05;;;5.55;;
56319;SDS011;42226;42.382;23.748;2024-02-21T12:59:59;5.85;;;5.47;;
56319;SDS011;42226;42.382;23.748;2024-02-21T13:02:26;5.90;;;5.50;;
56319;SDS011;42226;42.382;23.748;2024-02-21T13:04:55;6.15;;;5.75;;
56319;SDS011;42226;42.382;23.748;2024-02-21T13:07:27;6.10;;;5.70;;
56319;SDS011;42226;42.382;23.748;2024-02-21T13:09:58;5.55;;;5.25;;
56319;SDS011;42226;42.382;23.748;2024-02-21T13:12:25;6.43;;;6.03;;
56319;SDS011;42226;42.382;23.748;2024-02-21T13:14:54;6.35;;;5.95;;
56319;SDS011;42226;42.382;23.748;2024-02-21T13:17:21;6.47;;;6.03;;
56319;SDS011;42226;42.382;23.748;2024-02-21T13:19:49;6.38;;;5.97;;
56319;SDS011;42226;42.382;23.748;2024-02-21T13:22:16;7.00;;;6.40;;
56319;SDS011;42226;42.382;23.748;2024-02-21T13:24:46;6.13;;;5.72;;
56319;SDS011;42226;42.382;23.748;2024-02-21T13:27:12;6.05;;;5.65;;
56319;SDS011;42226;42.382;23.748;2024-02-21T13:29:45;6.90;;;6.50;;
56319;SDS011;42226;42.382;23.748;2024-02-21T13:32:12;6.30;;;5.90;;
56319;SDS011;42226;42.382;23.748;2024-02-21T13:34:41;6.53;;;6.03;;
56319;SDS011;42226;42.382;23.748;2024-02-21T13:37:10;6.40;;;6.00;;
56319;SDS011;42226;42.382;23.748;2024-02-21T13:39:37;6.28;;;5.72;;
56319;SDS011;42226;42.382;23.748;2024-02-21T13:42:05;6.63;;;6.13;;
56319;SDS011;42226;42.382;23.748;2024-02-21T13:44:32;7.05;;;6.55;;
56319;SDS011;42226;42.382;23.748;2024-02-21T13:46:59;6.40;;;5.90;;
56319;SDS011;42226;42.382;23.748;2024-02-21T13:49:41;6.88;;;6.38;;
56319;SDS011;42226;42.382;23.748;2024-02-21T13:52:09;7.82;;;7.22;;
56319;SDS011;42226;42.382;23.748;2024-02-21T13:54:35;7.68;;;7.00;;
56319;SDS011;42226;42.382;23.748;2024-02-21T13:57:02;7.40;;;6.90;;
56319;SDS011;42226;42.382;23.748;2024-02-21T13:59:30;7.40;;;6.60;;
56319;SDS011;42226;42.382;23.748;2024-02-21T14:01:59;7.20;;;6.70;;
56319;SDS011;42226;42.382;23.748;2024-02-21T14:04:27;7.47;;;6.78;;
56319;SDS011;42226;42.382;23.748;2024-02-21T14:06:56;6.88;;;6.38;;
56319;SDS011;42226;42.382;23.748;2024-02-21T14:09:22;7.57;;;7.07;;
56319;SDS011;42226;42.382;23.748;2024-02-21T14:14:22;8.40;;;7.70;;
56319;SDS011;42226;42.382;23.748;2024-02-21T14:16:50;7.93;;;7.22;;
56319;SDS011;42226;42.382;23.748;2024-02-21T14:19:18;8.38;;;7.57;;
56319;SDS011;42226;42.382;23.748;2024-02-21T14:21:45;8.05;;;7.43;;
56319;SDS011;42226;42.382;23.748;2024-02-21T14:24:13;7.75;;;7.15;;
56319;SDS011;42226;42.382;23.748;2024-02-21T14:26:40;7.57;;;6.97;;
56319;SDS011;42226;42.382;23.748;2024-02-21T14:29:07;8.25;;;7.65;;
56319;SDS011;42226;42.382;23.748;2024-02-21T14:31:35;7.28;;;6.68;;
56319;SDS011;42226;42.382;23.748;2024-02-21T14:36:53;7.95;;;7.35;;
56319;SDS011;42226;42.382;23.748;2024-02-21T14:39:21;7.75;;;7.15;;
56319;SDS011;42226;42.382;23.748;2024-02-21T14:42:01;6.85;;;6.35;;
56319;SDS011;42226;42.382;23.748;2024-02-21T14:47:30;7.57;;;6.88;;
56319;SDS011;42226;42.382;23.748;2024-02-21T14:49:58;8.40;;;7.70;;
56319;SDS011;42226;42.382;23.748;2024-02-21T14:52:27;8.18;;;7.53;;
56319;SDS011;42226;42.382;23.748;2024-02-21T14:54:55;6.60;;;6.13;;
56319;SDS011;42226;42.382;23.748;2024-02-21T14:57:23;7.45;;;6.78;;
56319;SDS011;42226;42.382;23.748;2024-02-21T14:59:50;6.93;;;6.32;;
56319;SDS011;42226;42.382;23.748;2024-02-21T15:02:23;6.72;;;6.22;;
56319;SDS011;42226;42.382;23.748;2024-02-21T15:04:52;7.43;;;6.80;;
56319;SDS011;42226;42.382;23.748;2024-02-21T15:07:21;8.00;;;7.30;;
56319;SDS011;42226;42.382;23.748;2024-02-21T15:09:50;7.65;;;7.05;;
56319;SDS011;42226;42.382;23.748;2024-02-21T15:12:18;7.53;;;6.90;;
56319;SDS011;42226;42.382;23.748;2024-02-21T15:14:44;7.18;;;6.57;;
56319;SDS011;42226;42.382;23.748;2024-02-21T15:17:12;7.20;;;6.60;;
56319;SDS011;42226;42.382;23.748;2024-02-21T15:19:40;7.18;;;6.57;;
56319;SDS011;42226;42.382;23.748;2024-02-21T15:22:10;7.95;;;7.35;;
56319;SDS011;42226;42.382;23.748;2024-02-21T15:24:39;7.47;;;6.78;;
56319;SDS011;42226;42.382;23.748;2024-02-21T15:27:07;7.70;;;7.10;;
56319;SDS011;42226;42.382;23.748;2024-02-21T15:29:34;6.95;;;6.45;;
56319;SDS011;42226;42.382;23.748;2024-02-21T15:32:02;7.53;;;6.93;;
56319;SDS011;42226;42.382;23.748;2024-02-21T15:34:30;8.05;;;7.45;;
56319;SDS011;42226;42.382;23.748;2024-02-21T15:36:57;7.65;;;6.95;;
56319;SDS011;42226;42.382;23.748;2024-02-21T15:39:25;8.05;;;7.45;;
56319;SDS011;42226;42.382;23.748;2024-02-21T15:44:47;7.40;;;6.80;;
56319;SDS011;42226;42.382;23.748;2024-02-21T15:47:13;7.70;;;7.07;;
56319;SDS011;42226;42.382;23.748;2024-02-21T15:49:43;7.65;;;7.05;;
56319;SDS011;42226;42.382;23.748;2024-02-21T15:52:11;7.60;;;7.03;;
56319;SDS011;42226;42.382;23.748;2024-02-21T15:54:40;7.32;;;6.82;;
56319;SDS011;42226;42.382;23.748;2024-02-21T15:57:07;7.25;;;6.75;;
56319;SDS011;42226;42.382;23.748;2024-02-21T15:59:35;7.53;;;6.93;;
56319;SDS011;42226;42.382;23.748;2024-02-21T16:02:11;6.95;;;6.45;;
56319;SDS011;42226;42.382;23.748;2024-02-21T16:07:08;8.27;;;7.53;;
56319;SDS011;42226;42.382;23.748;2024-02-21T16:09:36;10.45;;;9.38;;
56319;SDS011;42226;42.382;23.748;2024-02-21T16:12:02;8.93;;;8.13;;
56319;SDS011;42226;42.382;23.748;2024-02-21T16:14:33;9.32;;;8.50;;
56319;SDS011;42226;42.382;23.748;2024-02-21T16:17:02;9.95;;;9.05;;
56319;SDS011;42226;42.382;23.748;2024-02-21T16:19:34;9.43;;;8.65;;